sensor_id;sensor_type;location;lat;lon;timestamp;P1;durP1;ratioP1;P2;durP2;ratioP2
16179;SDS011;8196;49.428;10.906;2023-08-24T00:01:58;7.78;;;5.97;;
16179;SDS011;8196;49.428;10.906;2023-08-24T00:04:25;6.43;;;5.88;;
16179;SDS011;8196;49.428;10.906;2023-08-24T00:06:53;6.60;;;6.00;;
16179;SDS011;8196;49.428;10.906;2023-08-24T00:09:20;8.00;;;6.00;;
16179;SDS011;8196;49.428;10.906;2023-08-24T00:11:48;7.27;;;5.87;;
16179;SDS011;8196;49.428;10.906;2023-08-24T00:14:15;8.95;;;6.13;;
16179;SDS011;8196;49.428;10.906;2023-08-24T00:16:42;7.30;;;5.90;;
16179;SDS011;8196;49.428;10.906;2023-08-24T00:19:09;6.85;;;6.18;;
16179;SDS011;8196;49.428;10.906;2023-08-24T00:21:37;8.70;;;6.00;;
16179;SDS011;8196;49.428;10.906;2023-08-24T00:24:04;7.17;;;6.47;;
16179;SDS011;8196;49.428;10.906;2023-08-24T00:26:31;6.60;;;6.00;;
16179;SDS011;8196;49.428;10.906;2023-08-24T00:28:58;6.72;;;6.13;;
16179;SDS011;8196;49.428;10.906;2023-08-24T00:31:25;7.10;;;6.30;;
16179;SDS011;8196;49.428;10.906;2023-08-24T00:33:53;6.57;;;5.90;;
16179;SDS011;8196;49.428;10.906;2023-08-24T00:36:20;8.20;;;6.30;;
16179;SDS011;8196;49.428;10.906;2023-08-24T00:38:49;6.90;;;6.10;;
16179;SDS011;8196;49.428;10.906;2023-08-24T00:41:18;6.93;;;6.15;;
16179;SDS011;8196;49.428;10.906;2023-08-24T00:43:47;6.75;;;5.97;;
16179;SDS011;8196;49.428;10.906;2023-08-24T00:46:16;6.80;;;6.10;;
16179;SDS011;8196;49.428;10.906;2023-08-24T00:48:43;8.68;;;6.05;;
16179;SDS011;8196;49.428;10.906;2023-08-24T00:51:10;8.57;;;6.03;;
16179;SDS011;8196;49.428;10.906;2023-08-24T00:53:37;6.70;;;6.03;;
16179;SDS011;8196;49.428;10.906;2023-08-24T00:56:05;7.65;;;5.90;;
16179;SDS011;8196;49.428;10.906;2023-08-24T00:58:32;7.10;;;6.40;;
16179;SDS011;8196;49.428;10.906;2023-08-24T01:01:00;7.20;;;6.20;;
16179;SDS011;8196;49.428;10.906;2023-08-24T01:03:28;8.48;;;6.45;;
16179;SDS011;8196;49.428;10.906;2023-08-24T01:05:55;8.05;;;6.47;;
16179;SDS011;8196;49.428;10.906;2023-08-24T01:08:22;7.15;;;6.38;;
16179;SDS011;8196;49.428;10.906;2023-08-24T01:10:54;7.60;;;6.50;;
16179;SDS011;8196;49.428;10.906;2023-08-24T01:13:29;8.93;;;6.15;;
16179;SDS011;8196;49.428;10.906;2023-08-24T01:16:00;7.63;;;6.45;;
16179;SDS011;8196;49.428;10.906;2023-08-24T01:18:30;8.80;;;6.40;;
16179;SDS011;8196;49.428;10.906;2023-08-24T01:20:57;9.25;;;6.65;;
16179;SDS011;8196;49.428;10.906;2023-08-24T01:26:17;10.27;;;6.93;;
16179;SDS011;8196;49.428;10.906;2023-08-24T01:28:45;8.98;;;6.55;;
16179;SDS011;8196;49.428;10.906;2023-08-24T01:31:14;8.23;;;6.60;;
16179;SDS011;8196;49.428;10.906;2023-08-24T01:33:43;7.73;;;6.50;;
16179;SDS011;8196;49.428;10.906;2023-08-24T01:36:11;7.45;;;6.70;;
16179;SDS011;8196;49.428;10.906;2023-08-24T01:38:39;7.65;;;6.85;;
16179;SDS011;8196;49.428;10.906;2023-08-24T01:43:41;7.78;;;7.07;;
16179;SDS011;8196;49.428;10.906;2023-08-24T01:46:11;7.30;;;6.60;;
16179;SDS011;8196;49.428;10.906;2023-08-24T01:48:39;8.70;;;6.72;;
16179;SDS011;8196;49.428;10.906;2023-08-24T01:51:06;7.93;;;7.03;;
16179;SDS011;8196;49.428;10.906;2023-08-24T01:53:36;7.85;;;7.15;;
16179;SDS011;8196;49.428;10.906;2023-08-24T01:56:11;10.75;;;7.57;;
16179;SDS011;8196;49.428;10.906;2023-08-24T01:58:39;7.57;;;6.60;;
16179;SDS011;8196;49.428;10.906;2023-08-24T02:01:07;7.18;;;6.47;;
16179;SDS011;8196;49.428;10.906;2023-08-24T02:03:34;7.00;;;6.40;;
16179;SDS011;8196;49.428;10.906;2023-08-24T02:06:02;8.55;;;7.05;;
16179;SDS011;8196;49.428;10.906;2023-08-24T02:08:31;7.55;;;6.75;;
16179;SDS011;8196;49.428;10.906;2023-08-24T02:10:58;7.53;;;6.63;;
16179;SDS011;8196;49.428;10.906;2023-08-24T02:13:25;8.05;;;6.45;;
16179;SDS011;8196;49.428;10.906;2023-08-24T02:16:08;7.13;;;6.43;;
16179;SDS011;8196;49.428;10.906;2023-08-24T02:18:35;7.20;;;6.50;;
16179;SDS011;8196;49.428;10.906;2023-08-24T02:21:10;7.25;;;6.25;;
16179;SDS011;8196;49.428;10.906;2023-08-24T02:23:39;6.63;;;6.03;;
16179;SDS011;8196;49.428;10.906;2023-08-24T02:26:06;8.43;;;6.22;;
16179;SDS011;8196;49.428;10.906;2023-08-24T02:28:36;7.60;;;6.80;;
16179;SDS011;8196;49.428;10.906;2023-08-24T02:31:04;6.70;;;6.10;;
16179;SDS011;8196;49.428;10.906;2023-08-24T02:33:31;7.85;;;7.05;;
16179;SDS011;8196;49.428;10.906;2023-08-24T02:35:59;8.25;;;6.32;;
16179;SDS011;8196;49.428;10.906;2023-08-24T02:38:26;7.10;;;6.40;;
16179;SDS011;8196;49.428;10.906;2023-08-24T02:41:09;8.63;;;6.60;;
16179;SDS011;8196;49.428;10.906;2023-08-24T02:43:37;8.07;;;6.70;;
16179;SDS011;8196;49.428;10.906;2023-08-24T02:46:05;7.75;;;6.95;;
16179;SDS011;8196;49.428;10.906;2023-08-24T02:48:32;9.43;;;6.82;;
16179;SDS011;8196;49.428;10.906;2023-08-24T02:51:00;8.25;;;6.70;;
16179;SDS011;8196;49.428;10.906;2023-08-24T02:53:31;7.32;;;6.60;;
16179;SDS011;8196;49.428;10.906;2023-08-24T02:55:59;7.63;;;6.82;;
16179;SDS011;8196;49.428;10.906;2023-08-24T02:58:28;8.33;;;6.83;;
16179;SDS011;8196;49.428;10.906;2023-08-24T03:00:55;8.20;;;7.00;;
16179;SDS011;8196;49.428;10.906;2023-08-24T03:03:23;7.65;;;6.93;;
16179;SDS011;8196;49.428;10.906;2023-08-24T03:05:53;9.25;;;7.65;;
16179;SDS011;8196;49.428;10.906;2023-08-24T03:08:20;7.57;;;6.47;;
16179;SDS011;8196;49.428;10.906;2023-08-24T03:10:47;7.53;;;6.72;;
16179;SDS011;8196;49.428;10.906;2023-08-24T03:13:14;7.53;;;6.82;;
16179;SDS011;8196;49.428;10.906;2023-08-24T03:15:41;8.55;;;6.82;;
16179;SDS011;8196;49.428;10.906;2023-08-24T03:18:12;9.52;;;7.07;;
16179;SDS011;8196;49.428;10.906;2023-08-24T03:20:40;7.25;;;6.55;;
16179;SDS011;8196;49.428;10.906;2023-08-24T03:23:07;7.95;;;7.15;;
16179;SDS011;8196;49.428;10.906;2023-08-24T03:25:35;8.05;;;7.28;;
16179;SDS011;8196;49.428;10.906;2023-08-24T03:28:03;10.20;;;6.80;;
16179;SDS011;8196;49.428;10.906;2023-08-24T03:30:31;8.15;;;6.80;;
16179;SDS011;8196;49.428;10.906;2023-08-24T03:32:58;7.70;;;6.80;;
16179;SDS011;8196;49.428;10.906;2023-08-24T03:35:25;7.93;;;6.53;;
16179;SDS011;8196;49.428;10.906;2023-08-24T03:37:52;8.75;;;7.13;;
16179;SDS011;8196;49.428;10.906;2023-08-24T03:40:20;7.90;;;7.05;;
16179;SDS011;8196;49.428;10.906;2023-08-24T03:42:47;8.27;;;7.28;;
16179;SDS011;8196;49.428;10.906;2023-08-24T03:45:14;8.20;;;7.43;;
16179;SDS011;8196;49.428;10.906;2023-08-24T03:47:41;7.70;;;7.00;;
16179;SDS011;8196;49.428;10.906;2023-08-24T03:50:08;7.93;;;6.97;;
16179;SDS011;8196;49.428;10.906;2023-08-24T03:52:35;7.50;;;6.72;;
16179;SDS011;8196;49.428;10.906;2023-08-24T03:55:03;7.37;;;6.63;;
16179;SDS011;8196;49.428;10.906;2023-08-24T03:57:30;7.80;;;7.05;;
16179;SDS011;8196;49.428;10.906;2023-08-24T03:59:57;7.65;;;6.85;;
16179;SDS011;8196;49.428;10.906;2023-08-24T04:02:24;7.25;;;6.38;;
16179;SDS011;8196;49.428;10.906;2023-08-24T04:04:53;8.02;;;7.28;;
16179;SDS011;8196;49.428;10.906;2023-08-24T04:07:20;7.53;;;6.82;;
16179;SDS011;8196;49.428;10.906;2023-08-24T04:09:47;8.07;;;7.25;;
16179;SDS011;8196;49.428;10.906;2023-08-24T04:12:14;7.32;;;6.63;;
16179;SDS011;8196;49.428;10.906;2023-08-24T04:14:41;7.63;;;6.82;;
16179;SDS011;8196;49.428;10.906;2023-08-24T04:17:09;7.33;;;6.63;;
16179;SDS011;8196;49.428;10.906;2023-08-24T04:19:37;7.53;;;6.22;;
16179;SDS011;8196;49.428;10.906;2023-08-24T04:24:31;6.65;;;6.05;;
16179;SDS011;8196;49.428;10.906;2023-08-24T04:26:59;8.07;;;6.63;;
16179;SDS011;8196;49.428;10.906;2023-08-24T04:29:26;6.93;;;6.32;;
16179;SDS011;8196;49.428;10.906;2023-08-24T04:31:53;8.47;;;6.50;;
16179;SDS011;8196;49.428;10.906;2023-08-24T04:34:21;6.60;;;6.00;;
16179;SDS011;8196;49.428;10.906;2023-08-24T04:36:48;6.57;;;5.97;;
16179;SDS011;8196;49.428;10.906;2023-08-24T04:39:15;6.65;;;5.93;;
16179;SDS011;8196;49.428;10.906;2023-08-24T04:41:44;6.47;;;5.68;;
16179;SDS011;8196;49.428;10.906;2023-08-24T04:44:11;6.60;;;6.00;;
16179;SDS011;8196;49.428;10.906;2023-08-24T04:46:40;7.80;;;7.00;;
16179;SDS011;8196;49.428;10.906;2023-08-24T04:49:07;8.27;;;7.10;;
16179;SDS011;8196;49.428;10.906;2023-08-24T04:51:35;7.90;;;7.20;;
16179;SDS011;8196;49.428;10.906;2023-08-24T04:54:02;7.10;;;6.37;;
16179;SDS011;8196;49.428;10.906;2023-08-24T04:56:30;6.63;;;6.03;;
16179;SDS011;8196;49.428;10.906;2023-08-24T04:58:57;6.85;;;5.97;;
16179;SDS011;8196;49.428;10.906;2023-08-24T05:01:27;7.22;;;6.25;;
16179;SDS011;8196;49.428;10.906;2023-08-24T05:03:54;9.07;;;6.65;;
16179;SDS011;8196;49.428;10.906;2023-08-24T05:06:21;8.45;;;6.90;;
16179;SDS011;8196;49.428;10.906;2023-08-24T05:08:48;10.35;;;9.25;;
16179;SDS011;8196;49.428;10.906;2023-08-24T05:11:17;10.15;;;9.10;;
16179;SDS011;8196;49.428;10.906;2023-08-24T05:13:45;7.85;;;6.95;;
16179;SDS011;8196;49.428;10.906;2023-08-24T05:16:12;7.55;;;6.78;;
16179;SDS011;8196;49.428;10.906;2023-08-24T05:18:40;6.77;;;6.10;;
16179;SDS011;8196;49.428;10.906;2023-08-24T05:21:07;6.50;;;5.80;;
16179;SDS011;8196;49.428;10.906;2023-08-24T05:23:34;5.75;;;5.25;;
16179;SDS011;8196;49.428;10.906;2023-08-24T05:26:02;5.88;;;5.38;;
16179;SDS011;8196;49.428;10.906;2023-08-24T05:28:30;5.85;;;5.32;;
16179;SDS011;8196;49.428;10.906;2023-08-24T05:30:57;6.03;;;5.05;;
16179;SDS011;8196;49.428;10.906;2023-08-24T05:33:26;6.20;;;5.60;;
16179;SDS011;8196;49.428;10.906;2023-08-24T05:35:57;5.63;;;5.03;;
16179;SDS011;8196;49.428;10.906;2023-08-24T05:38:25;6.85;;;5.20;;
16179;SDS011;8196;49.428;10.906;2023-08-24T05:40:52;5.72;;;5.22;;
16179;SDS011;8196;49.428;10.906;2023-08-24T05:43:19;6.00;;;5.50;;
16179;SDS011;8196;49.428;10.906;2023-08-24T05:45:47;6.10;;;5.50;;
16179;SDS011;8196;49.428;10.906;2023-08-24T05:48:15;9.57;;;5.95;;
16179;SDS011;8196;49.428;10.906;2023-08-24T05:50:43;7.00;;;6.07;;
16179;SDS011;8196;49.428;10.906;2023-08-24T05:53:10;7.43;;;6.17;;
16179;SDS011;8196;49.428;10.906;2023-08-24T05:55:38;6.22;;;5.63;;
16179;SDS011;8196;49.428;10.906;2023-08-24T05:58:06;6.53;;;5.90;;
16179;SDS011;8196;49.428;10.906;2023-08-24T06:00:33;6.45;;;5.85;;
16179;SDS011;8196;49.428;10.906;2023-08-24T06:03:01;6.87;;;6.17;;
16179;SDS011;8196;49.428;10.906;2023-08-24T06:05:29;7.10;;;6.40;;
16179;SDS011;8196;49.428;10.906;2023-08-24T06:07:57;6.63;;;5.80;;
16179;SDS011;8196;49.428;10.906;2023-08-24T06:10:25;6.65;;;6.05;;
16179;SDS011;8196;49.428;10.906;2023-08-24T06:12:53;8.80;;;5.70;;
16179;SDS011;8196;49.428;10.906;2023-08-24T06:15:20;7.20;;;6.50;;
16179;SDS011;8196;49.428;10.906;2023-08-24T06:17:50;6.88;;;6.18;;
16179;SDS011;8196;49.428;10.906;2023-08-24T06:20:19;7.00;;;6.07;;
16179;SDS011;8196;49.428;10.906;2023-08-24T06:22:46;8.63;;;6.53;;
16179;SDS011;8196;49.428;10.906;2023-08-24T06:25:13;9.73;;;7.15;;
16179;SDS011;8196;49.428;10.906;2023-08-24T06:27:41;8.05;;;7.25;;
16179;SDS011;8196;49.428;10.906;2023-08-24T06:30:08;8.75;;;7.32;;
16179;SDS011;8196;49.428;10.906;2023-08-24T06:32:35;12.32;;;7.95;;
16179;SDS011;8196;49.428;10.906;2023-08-24T06:35:03;12.07;;;7.88;;
16179;SDS011;8196;49.428;10.906;2023-08-24T06:37:32;9.10;;;8.20;;
16179;SDS011;8196;49.428;10.906;2023-08-24T06:40:01;10.30;;;8.40;;
16179;SDS011;8196;49.428;10.906;2023-08-24T06:42:30;9.27;;;8.32;;
16179;SDS011;8196;49.428;10.906;2023-08-24T06:44:58;10.00;;;9.00;;
16179;SDS011;8196;49.428;10.906;2023-08-24T06:47:25;10.63;;;8.52;;
16179;SDS011;8196;49.428;10.906;2023-08-24T06:49:54;10.73;;;8.73;;
16179;SDS011;8196;49.428;10.906;2023-08-24T06:52:21;9.60;;;8.70;;
16179;SDS011;8196;49.428;10.906;2023-08-24T06:54:48;10.52;;;8.57;;
16179;SDS011;8196;49.428;10.906;2023-08-24T06:57:19;10.48;;;8.95;;
16179;SDS011;8196;49.428;10.906;2023-08-24T06:59:47;9.70;;;8.77;;
16179;SDS011;8196;49.428;10.906;2023-08-24T07:02:14;11.17;;;8.87;;
16179;SDS011;8196;49.428;10.906;2023-08-24T07:04:43;10.80;;;8.70;;
16179;SDS011;8196;49.428;10.906;2023-08-24T07:07:11;9.90;;;8.80;;
16179;SDS011;8196;49.428;10.906;2023-08-24T07:09:38;9.48;;;8.45;;
16179;SDS011;8196;49.428;10.906;2023-08-24T07:12:05;9.77;;;8.63;;
16179;SDS011;8196;49.428;10.906;2023-08-24T07:14:33;11.70;;;8.85;;
16179;SDS011;8196;49.428;10.906;2023-08-24T07:17:00;9.50;;;7.95;;
16179;SDS011;8196;49.428;10.906;2023-08-24T07:19:28;9.93;;;8.60;;
16179;SDS011;8196;49.428;10.906;2023-08-24T07:21:55;10.20;;;8.15;;
16179;SDS011;8196;49.428;10.906;2023-08-24T07:24:22;8.65;;;7.75;;
16179;SDS011;8196;49.428;10.906;2023-08-24T07:27:10;11.15;;;7.68;;
16179;SDS011;8196;49.428;10.906;2023-08-24T07:29:37;10.00;;;7.68;;
16179;SDS011;8196;49.428;10.906;2023-08-24T07:32:04;8.30;;;7.27;;
16179;SDS011;8196;49.428;10.906;2023-08-24T07:34:31;8.30;;;7.20;;
16179;SDS011;8196;49.428;10.906;2023-08-24T07:36:58;8.55;;;7.75;;
16179;SDS011;8196;49.428;10.906;2023-08-24T07:39:26;8.27;;;6.70;;
16179;SDS011;8196;49.428;10.906;2023-08-24T07:41:53;9.13;;;6.93;;
16179;SDS011;8196;49.428;10.906;2023-08-24T07:44:20;8.18;;;7.05;;
16179;SDS011;8196;49.428;10.906;2023-08-24T07:46:47;7.40;;;6.50;;
16179;SDS011;8196;49.428;10.906;2023-08-24T07:49:15;8.70;;;6.50;;
16179;SDS011;8196;49.428;10.906;2023-08-24T07:51:42;6.55;;;5.95;;
16179;SDS011;8196;49.428;10.906;2023-08-24T07:54:10;8.77;;;6.77;;
16179;SDS011;8196;49.428;10.906;2023-08-24T07:56:37;7.63;;;6.47;;
16179;SDS011;8196;49.428;10.906;2023-08-24T08:01:32;8.07;;;6.50;;
16179;SDS011;8196;49.428;10.906;2023-08-24T08:03:59;6.87;;;6.17;;
16179;SDS011;8196;49.428;10.906;2023-08-24T08:06:27;8.15;;;5.97;;
16179;SDS011;8196;49.428;10.906;2023-08-24T08:08:54;7.23;;;5.97;;
16179;SDS011;8196;49.428;10.906;2023-08-24T08:11:22;7.22;;;6.07;;
16179;SDS011;8196;49.428;10.906;2023-08-24T08:13:50;8.65;;;6.30;;
16179;SDS011;8196;49.428;10.906;2023-08-24T08:16:17;6.10;;;5.50;;
16179;SDS011;8196;49.428;10.906;2023-08-24T08:18:44;5.53;;;4.93;;
16179;SDS011;8196;49.428;10.906;2023-08-24T08:21:15;6.63;;;5.20;;
16179;SDS011;8196;49.428;10.906;2023-08-24T08:23:47;6.05;;;5.32;;
16179;SDS011;8196;49.428;10.906;2023-08-24T08:26:15;6.47;;;5.20;;
16179;SDS011;8196;49.428;10.906;2023-08-24T08:28:43;7.50;;;5.93;;
16179;SDS011;8196;49.428;10.906;2023-08-24T08:31:10;6.00;;;5.30;;
16179;SDS011;8196;49.428;10.906;2023-08-24T08:33:38;5.47;;;4.97;;
16179;SDS011;8196;49.428;10.906;2023-08-24T08:36:05;8.25;;;5.28;;
16179;SDS011;8196;49.428;10.906;2023-08-24T08:38:32;11.83;;;5.30;;
16179;SDS011;8196;49.428;10.906;2023-08-24T08:41:02;8.00;;;5.28;;
16179;SDS011;8196;49.428;10.906;2023-08-24T08:43:30;8.23;;;5.40;;
16179;SDS011;8196;49.428;10.906;2023-08-24T08:45:57;9.18;;;5.40;;
16179;SDS011;8196;49.428;10.906;2023-08-24T08:48:25;5.07;;;4.57;;
16179;SDS011;8196;49.428;10.906;2023-08-24T08:50:52;6.63;;;4.80;;
16179;SDS011;8196;49.428;10.906;2023-08-24T08:53:22;5.95;;;4.43;;
16179;SDS011;8196;49.428;10.906;2023-08-24T08:55:51;5.07;;;4.20;;
16179;SDS011;8196;49.428;10.906;2023-08-24T08:58:19;5.20;;;4.70;;
16179;SDS011;8196;49.428;10.906;2023-08-24T09:00:47;6.68;;;4.43;;
16179;SDS011;8196;49.428;10.906;2023-08-24T09:03:17;6.47;;;4.18;;
16179;SDS011;8196;49.428;10.906;2023-08-24T09:05:45;5.28;;;4.70;;
16179;SDS011;8196;49.428;10.906;2023-08-24T09:08:16;6.55;;;4.40;;
16179;SDS011;8196;49.428;10.906;2023-08-24T09:10:44;6.53;;;5.07;;
16179;SDS011;8196;49.428;10.906;2023-08-24T09:13:11;7.72;;;4.40;;
16179;SDS011;8196;49.428;10.906;2023-08-24T09:15:38;4.70;;;4.05;;
16179;SDS011;8196;49.428;10.906;2023-08-24T09:20:34;4.53;;;4.00;;
16179;SDS011;8196;49.428;10.906;2023-08-24T09:23:02;6.68;;;3.95;;
16179;SDS011;8196;49.428;10.906;2023-08-24T09:25:32;5.50;;;3.92;;
16179;SDS011;8196;49.428;10.906;2023-08-24T09:28:01;6.68;;;3.65;;
16179;SDS011;8196;49.428;10.906;2023-08-24T09:30:35;5.65;;;3.65;;
16179;SDS011;8196;49.428;10.906;2023-08-24T09:33:04;5.80;;;4.20;;
16179;SDS011;8196;49.428;10.906;2023-08-24T09:35:36;5.95;;;4.00;;
16179;SDS011;8196;49.428;10.906;2023-08-24T09:38:19;6.03;;;4.03;;
16179;SDS011;8196;49.428;10.906;2023-08-24T09:40:47;5.25;;;3.90;;
16179;SDS011;8196;49.428;10.906;2023-08-24T09:43:14;6.85;;;3.80;;
16179;SDS011;8196;49.428;10.906;2023-08-24T09:45:49;6.70;;;4.10;;
16179;SDS011;8196;49.428;10.906;2023-08-24T09:48:17;4.03;;;3.50;;
16179;SDS011;8196;49.428;10.906;2023-08-24T09:50:44;8.38;;;3.80;;
16179;SDS011;8196;49.428;10.906;2023-08-24T09:53:16;4.38;;;3.97;;
16179;SDS011;8196;49.428;10.906;2023-08-24T09:56:00;4.53;;;3.87;;
16179;SDS011;8196;49.428;10.906;2023-08-24T09:58:28;6.25;;;3.55;;
16179;SDS011;8196;49.428;10.906;2023-08-24T10:00:55;5.05;;;3.45;;
16179;SDS011;8196;49.428;10.906;2023-08-24T10:03:24;5.85;;;3.50;;
16179;SDS011;8196;49.428;10.906;2023-08-24T10:05:52;4.60;;;3.70;;
16179;SDS011;8196;49.428;10.906;2023-08-24T10:08:27;6.27;;;3.80;;
16179;SDS011;8196;49.428;10.906;2023-08-24T10:10:56;4.07;;;3.53;;
16179;SDS011;8196;49.428;10.906;2023-08-24T10:16:13;3.90;;;3.60;;
16179;SDS011;8196;49.428;10.906;2023-08-24T10:18:41;3.80;;;3.40;;
16179;SDS011;8196;49.428;10.906;2023-08-24T10:21:08;7.15;;;2.95;;
16179;SDS011;8196;49.428;10.906;2023-08-24T10:23:36;3.00;;;2.80;;
16179;SDS011;8196;49.428;10.906;2023-08-24T10:26:05;4.00;;;3.10;;
16179;SDS011;8196;49.428;10.906;2023-08-24T10:28:34;4.15;;;3.55;;
16179;SDS011;8196;49.428;10.906;2023-08-24T10:31:02;3.53;;;3.22;;
16179;SDS011;8196;49.428;10.906;2023-08-24T10:33:29;4.88;;;3.45;;
16179;SDS011;8196;49.428;10.906;2023-08-24T10:35:57;3.87;;;3.30;;
16179;SDS011;8196;49.428;10.906;2023-08-24T10:38:28;3.88;;;2.80;;
16179;SDS011;8196;49.428;10.906;2023-08-24T10:41:01;6.05;;;3.20;;
16179;SDS011;8196;49.428;10.906;2023-08-24T10:43:34;3.50;;;3.00;;
16179;SDS011;8196;49.428;10.906;2023-08-24T10:46:01;4.30;;;2.90;;
16179;SDS011;8196;49.428;10.906;2023-08-24T10:48:31;3.97;;;3.10;;
16179;SDS011;8196;49.428;10.906;2023-08-24T10:53:53;2.97;;;2.78;;
16179;SDS011;8196;49.428;10.906;2023-08-24T10:56:21;4.07;;;3.20;;
16179;SDS011;8196;49.428;10.906;2023-08-24T10:59:09;3.88;;;2.88;;
16179;SDS011;8196;49.428;10.906;2023-08-24T11:01:38;3.25;;;2.90;;
16179;SDS011;8196;49.428;10.906;2023-08-24T11:04:05;3.20;;;2.90;;
16179;SDS011;8196;49.428;10.906;2023-08-24T11:06:50;3.47;;;3.00;;
16179;SDS011;8196;49.428;10.906;2023-08-24T11:09:19;6.47;;;3.10;;
16179;SDS011;8196;49.428;10.906;2023-08-24T11:11:54;4.82;;;3.17;;
16179;SDS011;8196;49.428;10.906;2023-08-24T11:14:22;4.75;;;3.25;;
16179;SDS011;8196;49.428;10.906;2023-08-24T11:16:52;2.90;;;2.70;;
16179;SDS011;8196;49.428;10.906;2023-08-24T11:19:20;4.40;;;3.00;;
16179;SDS011;8196;49.428;10.906;2023-08-24T11:21:47;5.10;;;3.38;;
16179;SDS011;8196;49.428;10.906;2023-08-24T11:24:15;3.28;;;3.05;;
16179;SDS011;8196;49.428;10.906;2023-08-24T11:26:43;4.50;;;3.10;;
16179;SDS011;8196;49.428;10.906;2023-08-24T11:29:11;5.10;;;3.25;;
16179;SDS011;8196;49.428;10.906;2023-08-24T11:31:39;8.07;;;3.20;;
16179;SDS011;8196;49.428;10.906;2023-08-24T11:34:08;3.47;;;3.00;;
16179;SDS011;8196;49.428;10.906;2023-08-24T11:36:51;4.38;;;3.00;;
16179;SDS011;8196;49.428;10.906;2023-08-24T11:39:20;3.58;;;3.00;;
16179;SDS011;8196;49.428;10.906;2023-08-24T11:41:56;3.35;;;2.90;;
16179;SDS011;8196;49.428;10.906;2023-08-24T11:44:24;3.50;;;3.10;;
16179;SDS011;8196;49.428;10.906;2023-08-24T11:46:56;3.22;;;2.92;;
16179;SDS011;8196;49.428;10.906;2023-08-24T11:49:25;3.40;;;3.10;;
16179;SDS011;8196;49.428;10.906;2023-08-24T11:51:55;3.80;;;3.03;;
16179;SDS011;8196;49.428;10.906;2023-08-24T11:54:22;3.37;;;3.07;;
16179;SDS011;8196;49.428;10.906;2023-08-24T11:56:49;3.83;;;3.30;;
16179;SDS011;8196;49.428;10.906;2023-08-24T11:59:16;3.65;;;3.28;;
16179;SDS011;8196;49.428;10.906;2023-08-24T12:01:44;3.60;;;3.30;;
16179;SDS011;8196;49.428;10.906;2023-08-24T12:04:13;4.20;;;3.40;;
16179;SDS011;8196;49.428;10.906;2023-08-24T12:06:40;3.60;;;2.80;;
16179;SDS011;8196;49.428;10.906;2023-08-24T12:09:07;4.22;;;2.97;;
16179;SDS011;8196;49.428;10.906;2023-08-24T12:11:35;3.30;;;3.05;;
16179;SDS011;8196;49.428;10.906;2023-08-24T12:14:02;3.22;;;2.90;;
16179;SDS011;8196;49.428;10.906;2023-08-24T12:16:30;3.10;;;2.73;;
16179;SDS011;8196;49.428;10.906;2023-08-24T12:18:59;4.22;;;3.17;;
16179;SDS011;8196;49.428;10.906;2023-08-24T12:21:29;3.85;;;2.83;;
16179;SDS011;8196;49.428;10.906;2023-08-24T12:24:05;3.38;;;3.08;;
16179;SDS011;8196;49.428;10.906;2023-08-24T12:26:33;3.15;;;2.95;;
16179;SDS011;8196;49.428;10.906;2023-08-24T12:31:30;3.60;;;2.95;;
16179;SDS011;8196;49.428;10.906;2023-08-24T12:33:58;3.83;;;3.45;;
16179;SDS011;8196;49.428;10.906;2023-08-24T12:36:26;4.45;;;3.33;;
16179;SDS011;8196;49.428;10.906;2023-08-24T12:38:54;4.05;;;2.78;;
16179;SDS011;8196;49.428;10.906;2023-08-24T12:41:21;2.90;;;2.70;;
16179;SDS011;8196;49.428;10.906;2023-08-24T12:43:50;3.30;;;3.00;;
16179;SDS011;8196;49.428;10.906;2023-08-24T12:46:18;3.15;;;2.88;;
16179;SDS011;8196;49.428;10.906;2023-08-24T12:48:45;3.50;;;3.20;;
16179;SDS011;8196;49.428;10.906;2023-08-24T12:51:12;4.13;;;2.97;;
16179;SDS011;8196;49.428;10.906;2023-08-24T12:53:39;3.40;;;3.10;;
16179;SDS011;8196;49.428;10.906;2023-08-24T12:56:06;3.50;;;3.20;;
16179;SDS011;8196;49.428;10.906;2023-08-24T12:58:34;3.47;;;3.08;;
16179;SDS011;8196;49.428;10.906;2023-08-24T13:01:01;4.45;;;3.22;;
16179;SDS011;8196;49.428;10.906;2023-08-24T13:03:29;3.83;;;3.17;;
16179;SDS011;8196;49.428;10.906;2023-08-24T13:05:56;4.03;;;3.38;;
16179;SDS011;8196;49.428;10.906;2023-08-24T13:08:44;3.55;;;3.17;;
16179;SDS011;8196;49.428;10.906;2023-08-24T13:11:11;3.53;;;3.22;;
16179;SDS011;8196;49.428;10.906;2023-08-24T13:13:38;3.97;;;3.08;;
16179;SDS011;8196;49.428;10.906;2023-08-24T13:16:06;3.20;;;2.90;;
16179;SDS011;8196;49.428;10.906;2023-08-24T13:18:33;3.42;;;3.10;;
16179;SDS011;8196;49.428;10.906;2023-08-24T13:21:00;3.40;;;3.00;;
16179;SDS011;8196;49.428;10.906;2023-08-24T13:23:28;3.80;;;3.08;;
16179;SDS011;8196;49.428;10.906;2023-08-24T13:25:57;3.58;;;2.90;;
16179;SDS011;8196;49.428;10.906;2023-08-24T13:28:24;4.70;;;3.33;;
16179;SDS011;8196;49.428;10.906;2023-08-24T13:30:51;3.25;;;2.95;;
16179;SDS011;8196;49.428;10.906;2023-08-24T13:33:19;3.50;;;3.20;;
16179;SDS011;8196;49.428;10.906;2023-08-24T13:35:46;5.70;;;3.20;;
16179;SDS011;8196;49.428;10.906;2023-08-24T13:38:14;4.05;;;2.80;;
16179;SDS011;8196;49.428;10.906;2023-08-24T13:40:42;4.15;;;3.10;;
16179;SDS011;8196;49.428;10.906;2023-08-24T13:43:11;3.97;;;3.10;;
16179;SDS011;8196;49.428;10.906;2023-08-24T13:45:39;3.38;;;2.70;;
16179;SDS011;8196;49.428;10.906;2023-08-24T13:48:06;3.35;;;2.53;;
16179;SDS011;8196;49.428;10.906;2023-08-24T13:50:34;3.60;;;2.80;;
16179;SDS011;8196;49.428;10.906;2023-08-24T13:53:01;3.10;;;2.90;;
16179;SDS011;8196;49.428;10.906;2023-08-24T13:55:29;4.40;;;3.10;;
16179;SDS011;8196;49.428;10.906;2023-08-24T13:57:56;3.35;;;3.08;;
16179;SDS011;8196;49.428;10.906;2023-08-24T14:00:23;3.67;;;2.80;;
16179;SDS011;8196;49.428;10.906;2023-08-24T14:02:51;4.30;;;3.00;;
16179;SDS011;8196;49.428;10.906;2023-08-24T14:05:19;4.68;;;3.20;;
16179;SDS011;8196;49.428;10.906;2023-08-24T14:07:46;3.20;;;2.90;;
16179;SDS011;8196;49.428;10.906;2023-08-24T14:10:13;3.40;;;2.70;;
16179;SDS011;8196;49.428;10.906;2023-08-24T14:12:40;4.50;;;2.70;;
16179;SDS011;8196;49.428;10.906;2023-08-24T14:15:08;3.25;;;2.70;;
16179;SDS011;8196;49.428;10.906;2023-08-24T14:17:35;3.58;;;3.28;;
16179;SDS011;8196;49.428;10.906;2023-08-24T14:20:03;5.18;;;3.90;;
16179;SDS011;8196;49.428;10.906;2023-08-24T14:22:30;3.65;;;3.33;;
16179;SDS011;8196;49.428;10.906;2023-08-24T14:24:57;4.82;;;3.00;;
16179;SDS011;8196;49.428;10.906;2023-08-24T14:27:24;3.67;;;2.75;;
16179;SDS011;8196;49.428;10.906;2023-08-24T14:29:52;5.60;;;3.40;;
16179;SDS011;8196;49.428;10.906;2023-08-24T14:32:19;3.75;;;3.45;;
16179;SDS011;8196;49.428;10.906;2023-08-24T14:34:46;4.88;;;2.60;;
16179;SDS011;8196;49.428;10.906;2023-08-24T14:37:15;3.55;;;2.90;;
16179;SDS011;8196;49.428;10.906;2023-08-24T14:39:42;4.25;;;2.70;;
16179;SDS011;8196;49.428;10.906;2023-08-24T14:42:09;3.10;;;2.90;;
16179;SDS011;8196;49.428;10.906;2023-08-24T14:44:36;4.18;;;3.17;;
16179;SDS011;8196;49.428;10.906;2023-08-24T14:47:03;3.63;;;2.90;;
16179;SDS011;8196;49.428;10.906;2023-08-24T14:49:31;3.75;;;3.35;;
16179;SDS011;8196;49.428;10.906;2023-08-24T14:51:58;4.13;;;3.08;;
16179;SDS011;8196;49.428;10.906;2023-08-24T14:54:25;5.15;;;3.03;;
16179;SDS011;8196;49.428;10.906;2023-08-24T14:56:52;4.68;;;3.30;;
16179;SDS011;8196;49.428;10.906;2023-08-24T14:59:21;4.13;;;3.20;;
16179;SDS011;8196;49.428;10.906;2023-08-24T15:01:48;4.63;;;3.60;;
16179;SDS011;8196;49.428;10.906;2023-08-24T15:04:15;4.20;;;3.17;;
16179;SDS011;8196;49.428;10.906;2023-08-24T15:06:43;3.20;;;3.00;;
16179;SDS011;8196;49.428;10.906;2023-08-24T15:09:10;3.25;;;2.95;;
16179;SDS011;8196;49.428;10.906;2023-08-24T15:11:37;3.83;;;3.38;;
16179;SDS011;8196;49.428;10.906;2023-08-24T15:14:04;3.78;;;3.03;;
16179;SDS011;8196;49.428;10.906;2023-08-24T15:16:31;3.55;;;3.25;;